sensor_id;sensor_type;location;lat;lon;timestamp;P1;durP1;ratioP1;P2;durP2;ratioP2
66856;SDS011;53766;50.280;19.160;2024-01-11T00:02:18;138.80;;;76.40;;
66856;SDS011;53766;50.280;19.160;2024-01-11T00:04:45;134.73;;;77.22;;
66856;SDS011;53766;50.280;19.160;2024-01-11T00:07:13;142.00;;;75.18;;
66856;SDS011;53766;50.280;19.160;2024-01-11T00:09:41;139.73;;;77.22;;
66856;SDS011;53766;50.280;19.160;2024-01-11T00:12:09;135.95;;;76.00;;
66856;SDS011;53766;50.280;19.160;2024-01-11T00:14:36;141.02;;;77.38;;
66856;SDS011;53766;50.280;19.160;2024-01-11T00:17:04;136.55;;;76.50;;
66856;SDS011;53766;50.280;19.160;2024-01-11T00:19:31;137.23;;;77.55;;
66856;SDS011;53766;50.280;19.160;2024-01-11T00:21:59;140.45;;;78.03;;
66856;SDS011;53766;50.280;19.160;2024-01-11T00:24:27;138.35;;;75.95;;
66856;SDS011;53766;50.280;19.160;2024-01-11T00:26:54;140.77;;;77.93;;
66856;SDS011;53766;50.280;19.160;2024-01-11T00:29:22;135.23;;;77.53;;
66856;SDS011;53766;50.280;19.160;2024-01-11T00:31:49;135.52;;;75.82;;
66856;SDS011;53766;50.280;19.160;2024-01-11T00:34:17;139.88;;;76.35;;
66856;SDS011;53766;50.280;19.160;2024-01-11T00:36:44;137.75;;;76.03;;
66856;SDS011;53766;50.280;19.160;2024-01-11T00:39:12;136.40;;;74.68;;
66856;SDS011;53766;50.280;19.160;2024-01-11T00:41:39;138.57;;;76.80;;
66856;SDS011;53766;50.280;19.160;2024-01-11T00:44:07;142.32;;;77.28;;
66856;SDS011;53766;50.280;19.160;2024-01-11T00:46:35;138.90;;;77.43;;
66856;SDS011;53766;50.280;19.160;2024-01-11T00:49:03;142.52;;;77.03;;
66856;SDS011;53766;50.280;19.160;2024-01-11T00:51:31;141.00;;;77.68;;
66856;SDS011;53766;50.280;19.160;2024-01-11T00:53:59;134.82;;;77.93;;
66856;SDS011;53766;50.280;19.160;2024-01-11T00:56:27;138.65;;;76.53;;
66856;SDS011;53766;50.280;19.160;2024-01-11T00:58:54;139.98;;;79.20;;
66856;SDS011;53766;50.280;19.160;2024-01-11T01:01:22;139.98;;;78.28;;
66856;SDS011;53766;50.280;19.160;2024-01-11T01:03:49;141.40;;;77.68;;
66856;SDS011;53766;50.280;19.160;2024-01-11T01:06:17;142.85;;;78.00;;
66856;SDS011;53766;50.280;19.160;2024-01-11T01:08:45;137.35;;;77.93;;
66856;SDS011;53766;50.280;19.160;2024-01-11T01:11:12;140.40;;;78.60;;
66856;SDS011;53766;50.280;19.160;2024-01-11T01:13:40;141.15;;;78.63;;
66856;SDS011;53766;50.280;19.160;2024-01-11T01:16:07;134.07;;;76.78;;
66856;SDS011;53766;50.280;19.160;2024-01-11T01:18:35;137.63;;;75.75;;
66856;SDS011;53766;50.280;19.160;2024-01-11T01:21:03;141.27;;;76.95;;
66856;SDS011;53766;50.280;19.160;2024-01-11T01:23:34;143.23;;;77.32;;
66856;SDS011;53766;50.280;19.160;2024-01-11T01:26:01;143.25;;;78.35;;
66856;SDS011;53766;50.280;19.160;2024-01-11T01:28:33;142.50;;;79.32;;
66856;SDS011;53766;50.280;19.160;2024-01-11T01:31:01;145.85;;;79.22;;
66856;SDS011;53766;50.280;19.160;2024-01-11T01:33:28;141.38;;;76.35;;
66856;SDS011;53766;50.280;19.160;2024-01-11T01:35:56;139.75;;;78.20;;
66856;SDS011;53766;50.280;19.160;2024-01-11T01:38:23;140.13;;;78.28;;
66856;SDS011;53766;50.280;19.160;2024-01-11T01:40:51;139.07;;;77.38;;
66856;SDS011;53766;50.280;19.160;2024-01-11T01:43:18;146.02;;;78.95;;
66856;SDS011;53766;50.280;19.160;2024-01-11T01:45:46;144.30;;;77.22;;
66856;SDS011;53766;50.280;19.160;2024-01-11T01:48:14;143.85;;;79.05;;
66856;SDS011;53766;50.280;19.160;2024-01-11T01:50:42;141.52;;;78.00;;
66856;SDS011;53766;50.280;19.160;2024-01-11T01:53:12;139.45;;;77.57;;
66856;SDS011;53766;50.280;19.160;2024-01-11T01:55:40;142.68;;;80.15;;
66856;SDS011;53766;50.280;19.160;2024-01-11T01:58:07;143.63;;;78.53;;
66856;SDS011;53766;50.280;19.160;2024-01-11T02:00:35;141.20;;;77.93;;
66856;SDS011;53766;50.280;19.160;2024-01-11T02:03:03;140.32;;;76.65;;
66856;SDS011;53766;50.280;19.160;2024-01-11T02:05:32;139.60;;;78.55;;
66856;SDS011;53766;50.280;19.160;2024-01-11T02:08:00;140.57;;;79.72;;
66856;SDS011;53766;50.280;19.160;2024-01-11T02:10:31;146.50;;;78.90;;
66856;SDS011;53766;50.280;19.160;2024-01-11T02:12:59;144.00;;;76.30;;
66856;SDS011;53766;50.280;19.160;2024-01-11T02:15:27;140.55;;;77.55;;
66856;SDS011;53766;50.280;19.160;2024-01-11T02:17:55;147.18;;;79.70;;
66856;SDS011;53766;50.280;19.160;2024-01-11T02:20:22;145.55;;;77.78;;
66856;SDS011;53766;50.280;19.160;2024-01-11T02:22:52;145.30;;;79.53;;
66856;SDS011;53766;50.280;19.160;2024-01-11T02:25:23;139.35;;;77.97;;
66856;SDS011;53766;50.280;19.160;2024-01-11T02:27:51;136.13;;;78.43;;
66856;SDS011;53766;50.280;19.160;2024-01-11T02:30:19;141.63;;;77.22;;
66856;SDS011;53766;50.280;19.160;2024-01-11T02:32:47;137.98;;;76.65;;
66856;SDS011;53766;50.280;19.160;2024-01-11T02:35:16;140.73;;;77.13;;
66856;SDS011;53766;50.280;19.160;2024-01-11T02:37:45;143.50;;;77.35;;
66856;SDS011;53766;50.280;19.160;2024-01-11T02:40:14;137.15;;;76.38;;
66856;SDS011;53766;50.280;19.160;2024-01-11T02:42:42;139.63;;;75.97;;
66856;SDS011;53766;50.280;19.160;2024-01-11T02:45:10;140.82;;;77.28;;
66856;SDS011;53766;50.280;19.160;2024-01-11T02:47:39;142.23;;;76.63;;
66856;SDS011;53766;50.280;19.160;2024-01-11T02:50:07;142.05;;;77.40;;
66856;SDS011;53766;50.280;19.160;2024-01-11T02:52:35;138.25;;;75.53;;
66856;SDS011;53766;50.280;19.160;2024-01-11T02:55:03;137.63;;;75.20;;
66856;SDS011;53766;50.280;19.160;2024-01-11T02:57:30;141.18;;;77.68;;
66856;SDS011;53766;50.280;19.160;2024-01-11T02:59:58;138.32;;;76.15;;
66856;SDS011;53766;50.280;19.160;2024-01-11T03:02:25;142.50;;;76.18;;
66856;SDS011;53766;50.280;19.160;2024-01-11T03:04:53;138.10;;;75.60;;
66856;SDS011;53766;50.280;19.160;2024-01-11T03:07:20;138.60;;;77.15;;
66856;SDS011;53766;50.280;19.160;2024-01-11T03:09:48;135.75;;;76.40;;
66856;SDS011;53766;50.280;19.160;2024-01-11T03:12:15;137.15;;;75.18;;
66856;SDS011;53766;50.280;19.160;2024-01-11T03:14:43;135.52;;;74.65;;
66856;SDS011;53766;50.280;19.160;2024-01-11T03:17:10;132.82;;;73.45;;
66856;SDS011;53766;50.280;19.160;2024-01-11T03:19:39;135.35;;;75.20;;
66856;SDS011;53766;50.280;19.160;2024-01-11T03:22:07;132.55;;;75.38;;
66856;SDS011;53766;50.280;19.160;2024-01-11T03:24:38;136.23;;;74.43;;
66856;SDS011;53766;50.280;19.160;2024-01-11T03:27:08;133.63;;;73.43;;
66856;SDS011;53766;50.280;19.160;2024-01-11T03:29:36;139.27;;;75.03;;
66856;SDS011;53766;50.280;19.160;2024-01-11T03:32:04;133.57;;;72.93;;
66856;SDS011;53766;50.280;19.160;2024-01-11T03:34:32;129.00;;;73.80;;
66856;SDS011;53766;50.280;19.160;2024-01-11T03:36:59;131.38;;;72.25;;
66856;SDS011;53766;50.280;19.160;2024-01-11T03:39:27;133.75;;;71.82;;
66856;SDS011;53766;50.280;19.160;2024-01-11T03:41:54;139.43;;;73.85;;
66856;SDS011;53766;50.280;19.160;2024-01-11T03:44:22;129.30;;;71.45;;
66856;SDS011;53766;50.280;19.160;2024-01-11T03:46:49;130.68;;;71.07;;
66856;SDS011;53766;50.280;19.160;2024-01-11T03:49:17;132.15;;;73.53;;
66856;SDS011;53766;50.280;19.160;2024-01-11T03:51:45;134.82;;;73.25;;
66856;SDS011;53766;50.280;19.160;2024-01-11T03:54:12;132.15;;;71.55;;
66856;SDS011;53766;50.280;19.160;2024-01-11T03:56:40;127.55;;;70.20;;
66856;SDS011;53766;50.280;19.160;2024-01-11T03:59:08;133.23;;;71.70;;
66856;SDS011;53766;50.280;19.160;2024-01-11T04:01:39;129.75;;;71.28;;
66856;SDS011;53766;50.280;19.160;2024-01-11T04:04:10;129.93;;;72.28;;
66856;SDS011;53766;50.280;19.160;2024-01-11T04:06:37;132.20;;;71.05;;
66856;SDS011;53766;50.280;19.160;2024-01-11T04:09:05;127.90;;;70.80;;
66856;SDS011;53766;50.280;19.160;2024-01-11T04:11:32;123.82;;;67.53;;
66856;SDS011;53766;50.280;19.160;2024-01-11T04:14:00;127.88;;;68.05;;
66856;SDS011;53766;50.280;19.160;2024-01-11T04:16:28;121.72;;;68.25;;
66856;SDS011;53766;50.280;19.160;2024-01-11T04:18:55;133.20;;;69.65;;
66856;SDS011;53766;50.280;19.160;2024-01-11T04:21:23;125.60;;;69.32;;
66856;SDS011;53766;50.280;19.160;2024-01-11T04:23:52;125.40;;;71.28;;
66856;SDS011;53766;50.280;19.160;2024-01-11T04:26:19;125.85;;;67.68;;
66856;SDS011;53766;50.280;19.160;2024-01-11T04:28:47;127.30;;;68.30;;
66856;SDS011;53766;50.280;19.160;2024-01-11T04:31:16;126.85;;;67.75;;
66856;SDS011;53766;50.280;19.160;2024-01-11T04:33:45;120.90;;;67.15;;
66856;SDS011;53766;50.280;19.160;2024-01-11T04:36:13;121.40;;;65.43;;
66856;SDS011;53766;50.280;19.160;2024-01-11T04:38:40;124.47;;;67.28;;
66856;SDS011;53766;50.280;19.160;2024-01-11T04:41:08;124.25;;;67.45;;
66856;SDS011;53766;50.280;19.160;2024-01-11T04:43:40;121.75;;;66.28;;
66856;SDS011;53766;50.280;19.160;2024-01-11T04:46:27;121.68;;;65.72;;
66856;SDS011;53766;50.280;19.160;2024-01-11T04:48:54;121.05;;;67.03;;
66856;SDS011;53766;50.280;19.160;2024-01-11T04:51:22;117.07;;;63.42;;
66856;SDS011;53766;50.280;19.160;2024-01-11T04:53:50;121.95;;;64.53;;
66856;SDS011;53766;50.280;19.160;2024-01-11T04:56:17;115.57;;;63.67;;
66856;SDS011;53766;50.280;19.160;2024-01-11T04:58:45;119.20;;;63.47;;
66856;SDS011;53766;50.280;19.160;2024-01-11T05:01:17;116.93;;;62.22;;
66856;SDS011;53766;50.280;19.160;2024-01-11T05:03:46;115.80;;;61.83;;
66856;SDS011;53766;50.280;19.160;2024-01-11T05:06:20;112.13;;;61.22;;
66856;SDS011;53766;50.280;19.160;2024-01-11T05:08:50;113.93;;;61.35;;
66856;SDS011;53766;50.280;19.160;2024-01-11T05:11:22;116.75;;;61.28;;
66856;SDS011;53766;50.280;19.160;2024-01-11T05:13:54;110.05;;;59.17;;
66856;SDS011;53766;50.280;19.160;2024-01-11T05:16:22;113.18;;;59.65;;
66856;SDS011;53766;50.280;19.160;2024-01-11T05:18:50;112.57;;;60.33;;
66856;SDS011;53766;50.280;19.160;2024-01-11T05:21:19;107.75;;;58.67;;
66856;SDS011;53766;50.280;19.160;2024-01-11T05:23:48;112.80;;;59.50;;
66856;SDS011;53766;50.280;19.160;2024-01-11T05:26:16;105.35;;;57.65;;
66856;SDS011;53766;50.280;19.160;2024-01-11T05:28:44;107.57;;;58.60;;
66856;SDS011;53766;50.280;19.160;2024-01-11T05:31:13;109.38;;;57.42;;
66856;SDS011;53766;50.280;19.160;2024-01-11T05:33:42;104.32;;;56.83;;
66856;SDS011;53766;50.280;19.160;2024-01-11T05:36:11;111.68;;;58.35;;
66856;SDS011;53766;50.280;19.160;2024-01-11T05:38:39;108.60;;;58.58;;
66856;SDS011;53766;50.280;19.160;2024-01-11T05:41:07;104.22;;;55.97;;
66856;SDS011;53766;50.280;19.160;2024-01-11T05:43:37;102.75;;;54.58;;
66856;SDS011;53766;50.280;19.160;2024-01-11T05:46:06;104.35;;;55.63;;
66856;SDS011;53766;50.280;19.160;2024-01-11T05:48:34;102.28;;;54.45;;
66856;SDS011;53766;50.280;19.160;2024-01-11T05:51:02;101.60;;;55.50;;
66856;SDS011;53766;50.280;19.160;2024-01-11T05:53:30;103.70;;;55.22;;
66856;SDS011;53766;50.280;19.160;2024-01-11T05:56:00;103.25;;;53.38;;
66856;SDS011;53766;50.280;19.160;2024-01-11T05:58:28;96.72;;;53.25;;
66856;SDS011;53766;50.280;19.160;2024-01-11T06:00:55;100.28;;;54.03;;
66856;SDS011;53766;50.280;19.160;2024-01-11T06:03:23;100.60;;;54.05;;
66856;SDS011;53766;50.280;19.160;2024-01-11T06:05:52;97.85;;;53.05;;
66856;SDS011;53766;50.280;19.160;2024-01-11T06:08:19;101.38;;;53.88;;
66856;SDS011;53766;50.280;19.160;2024-01-11T06:10:47;100.53;;;52.50;;
66856;SDS011;53766;50.280;19.160;2024-01-11T06:13:14;101.63;;;52.55;;
66856;SDS011;53766;50.280;19.160;2024-01-11T06:15:42;94.10;;;50.60;;
66856;SDS011;53766;50.280;19.160;2024-01-11T06:18:09;94.30;;;50.38;;
66856;SDS011;53766;50.280;19.160;2024-01-11T06:20:37;96.78;;;50.63;;
66856;SDS011;53766;50.280;19.160;2024-01-11T06:23:05;93.70;;;50.35;;
66856;SDS011;53766;50.280;19.160;2024-01-11T06:25:32;92.22;;;49.72;;
66856;SDS011;53766;50.280;19.160;2024-01-11T06:28:00;96.07;;;49.40;;
66856;SDS011;53766;50.280;19.160;2024-01-11T06:30:27;94.35;;;49.28;;
66856;SDS011;53766;50.280;19.160;2024-01-11T06:32:55;90.38;;;48.28;;
66856;SDS011;53766;50.280;19.160;2024-01-11T06:35:23;93.70;;;50.03;;
66856;SDS011;53766;50.280;19.160;2024-01-11T06:37:50;99.53;;;49.88;;
66856;SDS011;53766;50.280;19.160;2024-01-11T06:40:17;88.32;;;47.78;;
66856;SDS011;53766;50.280;19.160;2024-01-11T06:42:46;95.00;;;47.10;;
66856;SDS011;53766;50.280;19.160;2024-01-11T06:45:15;87.85;;;46.60;;
66856;SDS011;53766;50.280;19.160;2024-01-11T06:47:42;86.80;;;46.38;;
66856;SDS011;53766;50.280;19.160;2024-01-11T06:50:12;90.55;;;46.70;;
66856;SDS011;53766;50.280;19.160;2024-01-11T06:52:41;92.68;;;47.53;;
66856;SDS011;53766;50.280;19.160;2024-01-11T06:55:08;84.28;;;45.05;;
66856;SDS011;53766;50.280;19.160;2024-01-11T06:57:37;86.80;;;46.20;;
66856;SDS011;53766;50.280;19.160;2024-01-11T07:00:05;85.95;;;45.75;;
66856;SDS011;53766;50.280;19.160;2024-01-11T07:02:35;88.18;;;45.38;;
66856;SDS011;53766;50.280;19.160;2024-01-11T07:05:03;84.40;;;45.20;;
66856;SDS011;53766;50.280;19.160;2024-01-11T07:07:31;90.63;;;45.22;;
66856;SDS011;53766;50.280;19.160;2024-01-11T07:09:59;88.28;;;45.83;;
66856;SDS011;53766;50.280;19.160;2024-01-11T07:12:27;85.10;;;44.63;;
66856;SDS011;53766;50.280;19.160;2024-01-11T07:14:54;84.63;;;45.47;;
66856;SDS011;53766;50.280;19.160;2024-01-11T07:17:22;81.75;;;44.13;;
66856;SDS011;53766;50.280;19.160;2024-01-11T07:19:50;83.55;;;43.85;;
66856;SDS011;53766;50.280;19.160;2024-01-11T07:22:18;85.47;;;43.65;;
66856;SDS011;53766;50.280;19.160;2024-01-11T07:24:45;82.60;;;42.65;;
66856;SDS011;53766;50.280;19.160;2024-01-11T07:27:13;81.97;;;44.20;;
66856;SDS011;53766;50.280;19.160;2024-01-11T07:29:41;86.72;;;44.17;;
66856;SDS011;53766;50.280;19.160;2024-01-11T07:32:09;78.70;;;42.80;;
66856;SDS011;53766;50.280;19.160;2024-01-11T07:34:37;79.18;;;42.35;;
66856;SDS011;53766;50.280;19.160;2024-01-11T07:37:04;82.82;;;42.97;;
66856;SDS011;53766;50.280;19.160;2024-01-11T07:39:32;79.10;;;42.25;;
66856;SDS011;53766;50.280;19.160;2024-01-11T07:41:59;76.32;;;41.47;;
66856;SDS011;53766;50.280;19.160;2024-01-11T07:44:27;73.93;;;40.90;;
66856;SDS011;53766;50.280;19.160;2024-01-11T07:46:54;83.45;;;43.50;;
66856;SDS011;53766;50.280;19.160;2024-01-11T07:49:27;83.93;;;42.35;;
66856;SDS011;53766;50.280;19.160;2024-01-11T07:51:55;76.32;;;40.83;;
66856;SDS011;53766;50.280;19.160;2024-01-11T07:54:23;76.13;;;41.78;;
66856;SDS011;53766;50.280;19.160;2024-01-11T07:56:51;78.57;;;42.30;;
66856;SDS011;53766;50.280;19.160;2024-01-11T07:59:18;80.45;;;41.38;;
66856;SDS011;53766;50.280;19.160;2024-01-11T08:01:46;78.95;;;42.05;;
66856;SDS011;53766;50.280;19.160;2024-01-11T08:04:15;75.65;;;40.30;;
66856;SDS011;53766;50.280;19.160;2024-01-11T08:06:43;77.45;;;41.38;;
66856;SDS011;53766;50.280;19.160;2024-01-11T08:09:10;76.18;;;40.08;;
66856;SDS011;53766;50.280;19.160;2024-01-11T08:11:40;77.85;;;40.95;;
66856;SDS011;53766;50.280;19.160;2024-01-11T08:14:17;74.03;;;40.20;;
66856;SDS011;53766;50.280;19.160;2024-01-11T08:16:45;79.15;;;41.15;;
66856;SDS011;53766;50.280;19.160;2024-01-11T08:19:12;71.10;;;39.45;;
66856;SDS011;53766;50.280;19.160;2024-01-11T08:21:44;74.53;;;39.83;;
66856;SDS011;53766;50.280;19.160;2024-01-11T08:24:11;76.70;;;40.30;;
66856;SDS011;53766;50.280;19.160;2024-01-11T08:26:39;72.97;;;41.00;;
66856;SDS011;53766;50.280;19.160;2024-01-11T08:29:06;77.38;;;38.70;;
66856;SDS011;53766;50.280;19.160;2024-01-11T08:31:34;71.28;;;38.17;;
66856;SDS011;53766;50.280;19.160;2024-01-11T08:34:05;73.15;;;38.35;;
66856;SDS011;53766;50.280;19.160;2024-01-11T08:36:34;73.55;;;39.08;;
66856;SDS011;53766;50.280;19.160;2024-01-11T08:39:02;73.55;;;39.90;;
66856;SDS011;53766;50.280;19.160;2024-01-11T08:41:35;72.97;;;37.90;;
66856;SDS011;53766;50.280;19.160;2024-01-11T08:44:04;71.70;;;38.67;;
66856;SDS011;53766;50.280;19.160;2024-01-11T08:46:35;68.20;;;37.33;;
66856;SDS011;53766;50.280;19.160;2024-01-11T08:49:03;74.78;;;39.13;;
66856;SDS011;53766;50.280;19.160;2024-01-11T08:51:31;68.85;;;37.47;;
66856;SDS011;53766;50.280;19.160;2024-01-11T08:54:01;71.00;;;37.78;;
66856;SDS011;53766;50.280;19.160;2024-01-11T08:56:29;66.45;;;37.13;;
66856;SDS011;53766;50.280;19.160;2024-01-11T08:58:57;71.90;;;38.05;;
66856;SDS011;53766;50.280;19.160;2024-01-11T09:01:26;69.50;;;38.35;;
66856;SDS011;53766;50.280;19.160;2024-01-11T09:03:54;67.38;;;37.05;;
66856;SDS011;53766;50.280;19.160;2024-01-11T09:06:22;64.38;;;36.47;;
66856;SDS011;53766;50.280;19.160;2024-01-11T09:08:49;67.25;;;36.72;;
66856;SDS011;53766;50.280;19.160;2024-01-11T09:11:17;66.70;;;36.65;;
66856;SDS011;53766;50.280;19.160;2024-01-11T09:13:45;61.83;;;34.97;;
66856;SDS011;53766;50.280;19.160;2024-01-11T09:16:16;63.30;;;35.65;;
66856;SDS011;53766;50.280;19.160;2024-01-11T09:18:45;65.15;;;35.47;;
66856;SDS011;53766;50.280;19.160;2024-01-11T09:21:13;64.18;;;34.90;;
66856;SDS011;53766;50.280;19.160;2024-01-11T09:23:40;63.13;;;34.63;;
66856;SDS011;53766;50.280;19.160;2024-01-11T09:26:08;61.35;;;35.92;;
66856;SDS011;53766;50.280;19.160;2024-01-11T09:28:35;65.60;;;34.65;;
66856;SDS011;53766;50.280;19.160;2024-01-11T09:31:03;62.58;;;35.47;;
66856;SDS011;53766;50.280;19.160;2024-01-11T09:33:31;62.88;;;34.05;;
66856;SDS011;53766;50.280;19.160;2024-01-11T09:35:59;62.08;;;34.25;;
66856;SDS011;53766;50.280;19.160;2024-01-11T09:38:26;63.15;;;34.53;;
66856;SDS011;53766;50.280;19.160;2024-01-11T09:41:05;63.65;;;33.97;;
66856;SDS011;53766;50.280;19.160;2024-01-11T09:43:40;62.78;;;34.17;;
66856;SDS011;53766;50.280;19.160;2024-01-11T09:46:09;61.38;;;33.72;;
66856;SDS011;53766;50.280;19.160;2024-01-11T09:48:38;60.67;;;33.42;;
66856;SDS011;53766;50.280;19.160;2024-01-11T09:51:11;57.85;;;31.77;;
66856;SDS011;53766;50.280;19.160;2024-01-11T09:53:38;58.55;;;32.70;;
66856;SDS011;53766;50.280;19.160;2024-01-11T09:56:09;56.72;;;32.78;;
66856;SDS011;53766;50.280;19.160;2024-01-11T09:58:38;59.15;;;33.08;;
66856;SDS011;53766;50.280;19.160;2024-01-11T10:01:16;56.28;;;31.25;;
66856;SDS011;53766;50.280;19.160;2024-01-11T10:03:46;55.55;;;32.05;;
66856;SDS011;53766;50.280;19.160;2024-01-11T10:06:14;56.75;;;32.15;;
66856;SDS011;53766;50.280;19.160;2024-01-11T10:08:43;58.05;;;31.65;;
66856;SDS011;53766;50.280;19.160;2024-01-11T10:11:10;54.17;;;30.95;;
66856;SDS011;53766;50.280;19.160;2024-01-11T10:13:38;58.10;;;31.30;;
66856;SDS011;53766;50.280;19.160;2024-01-11T10:16:09;57.55;;;30.50;;
66856;SDS011;53766;50.280;19.160;2024-01-11T10:18:40;55.40;;;30.60;;
66856;SDS011;53766;50.280;19.160;2024-01-11T10:21:09;55.55;;;30.00;;
66856;SDS011;53766;50.280;19.160;2024-01-11T10:23:37;56.42;;;29.75;;
66856;SDS011;53766;50.280;19.160;2024-01-11T10:26:06;54.97;;;30.25;;
66856;SDS011;53766;50.280;19.160;2024-01-11T10:28:34;53.05;;;29.75;;
66856;SDS011;53766;50.280;19.160;2024-01-11T10:31:04;52.80;;;28.90;;
66856;SDS011;53766;50.280;19.160;2024-01-11T10:33:34;54.78;;;29.92;;
66856;SDS011;53766;50.280;19.160;2024-01-11T10:36:03;51.92;;;30.25;;
66856;SDS011;53766;50.280;19.160;2024-01-11T10:38:31;54.58;;;30.27;;
66856;SDS011;53766;50.280;19.160;2024-01-11T10:41:04;51.90;;;29.23;;
66856;SDS011;53766;50.280;19.160;2024-01-11T10:43:36;53.13;;;28.65;;
66856;SDS011;53766;50.280;19.160;2024-01-11T10:46:05;52.25;;;28.67;;
66856;SDS011;53766;50.280;19.160;2024-01-11T10:48:38;55.42;;;29.55;;
66856;SDS011;53766;50.280;19.160;2024-01-11T10:51:08;52.35;;;29.42;;
66856;SDS011;53766;50.280;19.160;2024-01-11T10:53:44;52.05;;;28.30;;
66856;SDS011;53766;50.280;19.160;2024-01-11T10:56:14;50.20;;;28.25;;
66856;SDS011;53766;50.280;19.160;2024-01-11T10:58:45;50.03;;;28.23;;
66856;SDS011;53766;50.280;19.160;2024-01-11T11:01:14;50.65;;;28.55;;
66856;SDS011;53766;50.280;19.160;2024-01-11T11:03:43;50.92;;;27.67;;
66856;SDS011;53766;50.280;19.160;2024-01-11T11:06:13;50.88;;;27.13;;
66856;SDS011;53766;50.280;19.160;2024-01-11T11:08:42;49.00;;;27.73;;
66856;SDS011;53766;50.280;19.160;2024-01-11T11:11:12;52.25;;;27.83;;
66856;SDS011;53766;50.280;19.160;2024-01-11T11:13:40;46.97;;;27.27;;
66856;SDS011;53766;50.280;19.160;2024-01-11T11:16:10;48.65;;;27.45;;
66856;SDS011;53766;50.280;19.160;2024-01-11T11:18:37;50.15;;;26.92;;
66856;SDS011;53766;50.280;19.160;2024-01-11T11:21:09;49.35;;;26.85;;
66856;SDS011;53766;50.280;19.160;2024-01-11T11:23:38;49.92;;;27.23;;
66856;SDS011;53766;50.280;19.160;2024-01-11T11:26:06;49.50;;;26.52;;
66856;SDS011;53766;50.280;19.160;2024-01-11T11:28:35;43.53;;;25.45;;
66856;SDS011;53766;50.280;19.160;2024-01-11T11:31:04;46.78;;;26.95;;
66856;SDS011;53766;50.280;19.160;2024-01-11T11:33:31;49.63;;;26.52;;
66856;SDS011;53766;50.280;19.160;2024-01-11T11:35:59;46.42;;;26.25;;
66856;SDS011;53766;50.280;19.160;2024-01-11T11:38:28;47.70;;;26.38;;
66856;SDS011;53766;50.280;19.160;2024-01-11T11:40:58;46.92;;;26.27;;
66856;SDS011;53766;50.280;19.160;2024-01-11T11:43:27;45.08;;;25.67;;
66856;SDS011;53766;50.280;19.160;2024-01-11T11:45:55;43.28;;;24.85;;
66856;SDS011;53766;50.280;19.160;2024-01-11T11:53:33;44.22;;;24.88;;
66856;SDS011;53766;50.280;19.160;2024-01-11T11:56:02;44.63;;;25.08;;
66856;SDS011;53766;50.280;19.160;2024-01-11T11:58:31;44.97;;;24.35;;
66856;SDS011;53766;50.280;19.160;2024-01-11T12:01:00;45.70;;;25.40;;
66856;SDS011;53766;50.280;19.160;2024-01-11T12:03:30;45.45;;;25.55;;
66856;SDS011;53766;50.280;19.160;2024-01-11T12:05:59;41.15;;;24.13;;
66856;SDS011;53766;50.280;19.160;2024-01-11T12:08:28;41.88;;;23.33;;
66856;SDS011;53766;50.280;19.160;2024-01-11T12:10:55;42.63;;;22.98;;
66856;SDS011;53766;50.280;19.160;2024-01-11T12:13:24;43.13;;;24.50;;
66856;SDS011;53766;50.280;19.160;2024-01-11T12:15:52;45.20;;;24.20;;
66856;SDS011;53766;50.280;19.160;2024-01-11T12:18:20;43.95;;;24.55;;
66856;SDS011;53766;50.280;19.160;2024-01-11T12:20:48;43.15;;;23.83;;
66856;SDS011;53766;50.280;19.160;2024-01-11T12:23:16;41.53;;;23.85;;
66856;SDS011;53766;50.280;19.160;2024-01-11T12:25:44;42.47;;;23.60;;
66856;SDS011;53766;50.280;19.160;2024-01-11T12:28:11;42.85;;;24.13;;
66856;SDS011;53766;50.280;19.160;2024-01-11T12:30:39;40.08;;;22.65;;
66856;SDS011;53766;50.280;19.160;2024-01-11T12:33:07;40.33;;;22.92;;
66856;SDS011;53766;50.280;19.160;2024-01-11T12:35:36;41.33;;;22.63;;
66856;SDS011;53766;50.280;19.160;2024-01-11T12:38:05;42.65;;;23.17;;
66856;SDS011;53766;50.280;19.160;2024-01-11T12:40:33;41.70;;;22.42;;
66856;SDS011;53766;50.280;19.160;2024-01-11T12:43:02;39.00;;;21.02;;
66856;SDS011;53766;50.280;19.160;2024-01-11T12:45:31;39.17;;;21.65;;
66856;SDS011;53766;50.280;19.160;2024-01-11T12:47:59;38.95;;;21.65;;
66856;SDS011;53766;50.280;19.160;2024-01-11T12:50:28;39.80;;;21.95;;
66856;SDS011;53766;50.280;19.160;2024-01-11T12:53:15;38.33;;;21.92;;
66856;SDS011;53766;50.280;19.160;2024-01-11T12:55:48;38.03;;;21.45;;
66856;SDS011;53766;50.280;19.160;2024-01-11T12:58:24;38.67;;;21.38;;
66856;SDS011;53766;50.280;19.160;2024-01-11T13:00:53;39.47;;;22.00;;
66856;SDS011;53766;50.280;19.160;2024-01-11T13:03:21;37.42;;;20.35;;
66856;SDS011;53766;50.280;19.160;2024-01-11T13:05:50;38.42;;;21.27;;
66856;SDS011;53766;50.280;19.160;2024-01-11T13:08:18;38.97;;;20.88;;
66856;SDS011;53766;50.280;19.160;2024-01-11T13:10:47;39.83;;;21.88;;
66856;SDS011;53766;50.280;19.160;2024-01-11T13:13:16;37.85;;;21.70;;
66856;SDS011;53766;50.280;19.160;2024-01-11T13:15:44;38.05;;;21.02;;
66856;SDS011;53766;50.280;19.160;2024-01-11T13:18:12;38.28;;;20.75;;
66856;SDS011;53766;50.280;19.160;2024-01-11T13:20:39;35.92;;;21.08;;
66856;SDS011;53766;50.280;19.160;2024-01-11T13:23:14;37.78;;;21.02;;
66856;SDS011;53766;50.280;19.160;2024-01-11T13:25:42;38.22;;;21.85;;
66856;SDS011;53766;50.280;19.160;2024-01-11T13:28:11;34.67;;;20.13;;
66856;SDS011;53766;50.280;19.160;2024-01-11T13:30:40;37.05;;;20.38;;
66856;SDS011;53766;50.280;19.160;2024-01-11T13:33:09;34.70;;;19.38;;
66856;SDS011;53766;50.280;19.160;2024-01-11T13:35:38;37.70;;;20.95;;
66856;SDS011;53766;50.280;19.160;2024-01-11T13:38:07;33.80;;;19.30;;
66856;SDS011;53766;50.280;19.160;2024-01-11T13:40:35;33.05;;;19.35;;
66856;SDS011;53766;50.280;19.160;2024-01-11T13:43:03;36.55;;;20.08;;
66856;SDS011;53766;50.280;19.160;2024-01-11T13:45:31;36.70;;;20.20;;
66856;SDS011;53766;50.280;19.160;2024-01-11T13:47:58;37.47;;;21.10;;
66856;SDS011;53766;50.280;19.160;2024-01-11T13:50:27;35.65;;;19.90;;
66856;SDS011;53766;50.280;19.160;2024-01-11T13:52:54;33.53;;;18.88;;
66856;SDS011;53766;50.280;19.160;2024-01-11T13:55:22;34.33;;;20.25;;
66856;SDS011;53766;50.280;19.160;2024-01-11T13:57:50;35.10;;;19.27;;
66856;SDS011;53766;50.280;19.160;2024-01-11T14:00:18;35.50;;;19.45;;
66856;SDS011;53766;50.280;19.160;2024-01-11T14:02:46;35.20;;;19.30;;
66856;SDS011;53766;50.280;19.160;2024-01-11T14:05:16;36.42;;;19.60;;
66856;SDS011;53766;50.280;19.160;2024-01-11T14:07:45;33.40;;;18.95;;
66856;SDS011;53766;50.280;19.160;2024-01-11T14:10:14;35.42;;;19.63;;
66856;SDS011;53766;50.280;19.160;2024-01-11T14:12:42;33.40;;;19.25;;
66856;SDS011;53766;50.280;19.160;2024-01-11T14:15:10;34.08;;;19.15;;
66856;SDS011;53766;50.280;19.160;2024-01-11T14:17:39;32.40;;;18.92;;